Time;durP1;ratioP1;P1;durP2;ratioP2;P2;SDS_P1;SDS_P2;PMS_P1;PMS_P2;Temp;Humidity;BMP_temperature;BMP_pressure;BME280_temperature;BME280_humidity;BME280_pressure;Samples;Min_cycle;Max_cycle;Signal;HPM_P1;HPM_P2
2023/01/17 00:00:19;;;;;;;3.33;1.75;;;;;;;4.22;100.00;97452.06;6274813;28;20045;-70
2023/01/17 00:03:20;;;;;;;4.43;2.38;;;;;;;4.17;100.00;97448.19;6274422;28;20420;-71
2023/01/17 00:09:53;;;;;;;2.55;1.85;;;;;;;4.20;100.00;97455.75;6274412;28;20049;-70
2023/01/17 00:12:57;;;;;;;3.22;2.22;;;;;;;4.25;100.00;97446.63;6274672;28;20056;-71
2023/01/17 00:15:58;;;;;;;3.60;2.13;;;;;;;4.22;100.00;97443.44;6274303;28;20048;-70
2023/01/17 01:33:57;;;;;;;6.50;3.10;;;;;;;3.42;100.00;97530.22;6272532;28;20555;-70
2023/01/17 01:36:59;;;;;;;7.70;3.42;;;;;;;3.38;100.00;97533.16;6272455;28;20055;-70
2023/01/17 01:40:00;;;;;;;9.10;3.90;;;;;;;3.42;100.00;97538.00;6272071;28;20048;-70
2023/01/17 01:43:04;;;;;;;7.95;4.05;;;;;;;3.37;100.00;97534.91;6272385;28;20056;-70
2023/01/17 01:46:06;;;;;;;9.10;3.85;;;;;;;3.37;100.00;97542.72;6272126;28;20110;-70
2023/01/17 01:49:19;;;;;;;8.95;3.25;;;;;;;3.39;100.00;97547.78;6272038;28;20044;-71
2023/01/17 01:52:25;;;;;;;8.98;4.05;;;;;;;3.41;100.00;97551.09;6271869;28;20139;-70
2023/01/17 01:55:30;;;;;;;8.82;4.28;;;;;;;3.38;100.00;97557.34;6271980;28;20523;-70
2023/01/17 01:58:35;;;;;;;7.45;3.25;;;;;;;3.27;100.00;97562.47;6272185;28;20045;-70
2023/01/17 02:01:37;;;;;;;6.70;3.47;;;;;;;3.23;100.00;97569.69;6271935;28;20388;-70
2023/01/17 02:04:39;;;;;;;7.95;3.30;;;;;;;3.17;100.00;97574.50;6271418;28;20045;-70
2023/01/17 02:07:45;;;;;;;5.38;2.25;;;;;;;3.17;100.00;97580.50;6271886;28;20052;-71
2023/01/17 02:10:46;;;;;;;4.78;2.97;;;;;;;3.20;100.00;97585.47;6271525;28;20057;-70
2023/01/17 02:13:48;;;;;;;8.48;2.78;;;;;;;3.17;100.00;97592.66;6271747;28;20056;-70
2023/01/17 02:17:03;;;;;;;6.22;2.90;;;;;;;3.16;100.00;97593.59;6271748;28;20075;-71
2023/01/17 02:20:42;;;;;;;5.68;3.15;;;;;;;3.13;100.00;97597.25;6271089;28;20048;-71
2023/01/17 02:23:58;;;;;;;;;;;;;;;3.17;100.00;97600.44;6271834;28;20045;-70
2023/01/17 02:27:04;;;;;;;4.35;2.63;;;;;;;3.21;100.00;97613.06;6271828;28;19924;-71
2023/01/17 02:30:27;;;;;;;3.70;2.58;;;;;;;3.26;100.00;97598.00;6271471;28;20045;-71
2023/01/17 02:33:37;;;;;;;4.15;2.33;;;;;;;3.30;100.00;97596.00;6271498;28;20691;-71
2023/01/17 02:36:44;;;;;;;5.40;2.75;;;;;;;3.23;100.00;97608.63;6271405;28;20056;-71
2023/01/17 02:39:53;;;;;;;3.90;2.20;;;;;;;3.31;100.00;97605.44;6271027;28;20045;-71
2023/01/17 02:42:59;;;;;;;4.00;2.65;;;;;;;3.25;100.00;97609.31;6271673;28;20052;-71
2023/01/17 02:46:02;;;;;;;2.97;2.35;;;;;;;3.24;100.00;97604.25;6271034;28;20056;-71
2023/01/17 02:49:03;;;;;;;5.28;2.40;;;;;;;3.30;100.00;97603.78;6271298;28;20516;-70
2023/01/17 02:52:18;;;;;;;4.40;2.05;;;;;;;3.30;100.00;97615.00;6271092;28;20052;-71
2023/01/17 02:55:34;;;;;;;2.53;2.03;;;;;;;3.36;100.00;97611.13;6271261;28;20049;-71
2023/01/17 02:58:50;;;;;;;2.90;1.77;;;;;;;3.38;100.00;97616.19;6271282;28;20056;-70
2023/01/17 03:02:09;;;;;;;3.50;1.98;;;;;;;3.39;100.00;97621.28;6270857;28;20087;-71
2023/01/17 03:05:14;;;;;;;2.83;1.55;;;;;;;3.45;100.00;97610.44;6270922;28;20066;-71
2023/01/17 03:08:16;;;;;;;2.67;1.65;;;;;;;3.45;100.00;97615.63;6271141;28;20052;-71
2023/01/17 03:11:18;;;;;;;3.45;1.45;;;;;;;3.38;100.00;97632.59;6271236;28;20052;-71
2023/01/17 03:14:19;;;;;;;2.30;1.35;;;;;;;3.41;100.00;97632.38;6270935;28;20060;-70
2023/01/17 03:17:22;;;;;;;3.28;1.90;;;;;;;3.48;100.00;97641.34;6270832;28;20489;-70
2023/01/17 03:20:24;;;;;;;3.85;1.55;;;;;;;3.49;100.00;97629.19;6270781;28;20045;-70
2023/01/17 03:23:25;;;;;;;4.45;1.23;;;;;;;3.48;100.00;97641.34;6270834;28;20484;-71
2023/01/17 03:26:26;;;;;;;2.08;1.23;;;;;;;3.51;100.00;97655.88;6271069;28;20056;-70
2023/01/17 03:29:28;;;;;;;2.20;1.02;;;;;;;3.49;100.00;97653.38;6270653;28;20420;-70
2023/01/17 03:32:30;;;;;;;1.42;1.08;;;;;;;3.58;100.00;97651.88;6272366;28;20045;-70
2023/01/17 03:35:32;;;;;;;1.85;1.30;;;;;;;3.51;100.00;97654.13;6275415;28;20055;-71
2023/01/17 03:38:33;;;;;;;3.13;1.10;;;;;;;3.49;100.00;97660.34;6274609;28;20071;-70
2023/01/17 03:41:34;;;;;;;1.38;1.05;;;;;;;3.46;100.00;97658.81;6275125;28;20052;-70
2023/01/17 03:44:36;;;;;;;4.53;1.27;;;;;;;3.48;100.00;97663.88;6275263;28;20058;-71
2023/01/17 03:47:39;;;;;;;1.58;1.17;;;;;;;3.44;100.00;97675.44;6275356;28;20182;-71
2023/01/17 03:50:40;;;;;;;1.13;0.93;;;;;;;3.43;100.00;97677.22;6274538;28;20053;-71
2023/01/17 03:53:42;;;;;;;1.90;1.20;;;;;;;3.40;100.00;97686.97;6274897;28;20064;-70
2023/01/17 03:56:43;;;;;;;1.15;1.05;;;;;;;3.43;100.00;97687.59;6261188;28;20050;-71
2023/01/17 03:59:45;;;;;;;1.40;0.95;;;;;;;3.42;100.00;97701.50;6236967;28;20172;-71
2023/01/17 04:02:48;;;;;;;0.70;0.70;;;;;;;3.42;100.00;97692.91;6232527;28;20057;-71
2023/01/17 04:05:49;;;;;;;0.73;0.73;;;;;;;3.42;100.00;97701.50;6225470;28;20056;-71
2023/01/17 04:08:51;;;;;;;0.93;0.82;;;;;;;3.41;100.00;97705.06;6225222;28;20398;-71
2023/01/17 04:11:53;;;;;;;1.95;0.75;;;;;;;3.33;100.00;97704.78;6225380;28;20477;-71
2023/01/17 04:14:54;;;;;;;1.38;1.10;;;;;;;3.29;100.00;97716.31;6225102;28;20061;-71
2023/01/17 04:17:57;;;;;;;1.67;1.10;;;;;;;3.29;100.00;97724.94;6225116;28;20417;-71
2023/01/17 04:20:58;;;;;;;6.25;0.93;;;;;;;3.17;100.00;97736.19;6224849;28;20486;-71
2023/01/17 04:24:00;;;;;;;0.63;0.55;;;;;;;3.16;100.00;97739.72;6225133;28;20108;-71
2023/01/17 04:27:02;;;;;;;1.73;0.80;;;;;;;3.15;100.00;97745.84;6242932;28;20056;-71
2023/01/17 04:30:03;;;;;;;0.68;0.68;;;;;;;3.08;100.00;97756.78;6248561;28;20053;-71
2023/01/17 04:33:06;;;;;;;0.55;0.52;;;;;;;3.05;100.00;97770.81;6235266;28;20409;-71
2023/01/17 04:36:08;;;;;;;0.80;0.70;;;;;;;2.93;100.00;97775.06;6236457;28;20054;-71
2023/01/17 04:39:09;;;;;;;0.30;0.30;;;;;;;2.89;100.00;97784.00;6246312;28;20057;-71
2023/01/17 04:42:10;;;;;;;0.50;0.50;;;;;;;2.82;100.00;97797.50;6248823;28;20053;-71
2023/01/17 04:45:13;;;;;;;0.20;0.20;;;;;;;2.76;100.00;97798.75;6248439;28;20507;-71
2023/01/17 04:48:15;;;;;;;0.35;0.35;;;;;;;2.69;100.00;97808.72;6249078;28;20052;-71
2023/01/17 04:51:17;;;;;;;0.30;0.30;;;;;;;2.70;100.00;97806.97;6248633;28;20050;-71
2023/01/17 04:54:18;;;;;;;0.30;0.30;;;;;;;2.66;100.00;97818.47;6248948;28;20056;-71
2023/01/17 04:57:19;;;;;;;0.30;0.30;;;;;;;2.56;100.00;97818.28;6248780;28;20057;-71
2023/01/17 05:00:21;;;;;;;0.50;0.50;;;;;;;2.53;100.00;97819.28;6248615;28;20046;-71
2023/01/17 05:03:24;;;;;;;0.65;0.50;;;;;;;2.51;100.00;97822.94;6248469;28;20390;-71
2023/01/17 05:06:25;;;;;;;0.57;0.50;;;;;;;2.50;100.00;97836.84;6248518;28;20144;-71
2023/01/17 05:09:27;;;;;;;0.30;0.30;;;;;;;2.52;100.00;97845.31;6248418;28;20053;-71
2023/01/17 05:12:28;;;;;;;0.35;0.35;;;;;;;2.44;100.00;97850.19;6248389;28;20052;-71
2023/01/17 05:15:30;;;;;;;0.30;0.30;;;;;;;2.45;100.00;97875.16;6248379;28;20064;-71
2023/01/17 05:18:32;;;;;;;0.20;0.20;;;;;;;2.47;100.00;97879.34;6248439;28;20053;-71
2023/01/17 05:21:34;;;;;;;1.30;0.60;;;;;;;2.39;100.00;97883.34;6248022;28;20049;-71
2023/01/17 05:24:35;;;;;;;0.20;0.20;;;;;;;2.44;100.00;97900.25;6247931;28;20486;-71
2023/01/17 05:27:36;;;;;;;0.20;0.20;;;;;;;2.42;100.00;97914.25;6248168;28;20056;-71
2023/01/17 05:30:38;;;;;;;0.40;0.40;;;;;;;2.37;100.00;97908.56;6247682;28;20041;-71
2023/01/17 05:33:41;;;;;;;0.30;0.30;;;;;;;2.33;100.00;97922.63;6248065;28;20049;-71
2023/01/17 05:36:42;;;;;;;0.63;0.50;;;;;;;2.20;100.00;97931.19;6247849;28;20053;-71
2023/01/17 05:39:43;;;;;;;0.30;0.30;;;;;;;2.20;100.00;97941.56;6247715;28;20045;-71
2023/01/17 05:42:45;;;;;;;0.93;0.30;;;;;;;2.03;100.00;97945.22;6247642;28;20045;-71
2023/01/17 05:45:48;;;;;;;0.10;0.10;;;;;;;1.90;100.00;97951.28;6247664;28;20515;-72
2023/01/17 05:48:50;;;;;;;0.30;0.30;;;;;;;1.84;100.00;97959.44;6247374;28;20191;-72
2023/01/17 05:51:52;;;;;;;0.30;0.30;;;;;;;1.90;100.00;97983.19;6247459;28;20052;-72
2023/01/17 05:54:53;;;;;;;0.30;0.30;;;;;;;1.85;100.00;97968.88;6246846;28;20049;-71
2023/01/17 05:57:56;;;;;;;0.25;0.25;;;;;;;1.78;100.00;97971.84;6246950;28;20049;-73
2023/01/17 06:00:57;;;;;;;0.28;0.28;;;;;;;1.82;100.00;97989.75;6247110;28;20053;-71
2023/01/17 06:04:00;;;;;;;0.63;0.28;;;;;;;1.78;100.00;97997.72;6247120;28;20052;-71
2023/01/17 06:07:01;;;;;;;0.10;0.10;;;;;;;1.72;100.00;97990.31;6247324;28;20068;-71
2023/01/17 06:10:02;;;;;;;1.17;0.20;;;;;;;1.70;100.00;98004.31;6246896;28;20050;-71
2023/01/17 06:13:06;;;;;;;0.55;0.55;;;;;;;1.64;100.00;98002.94;6247216;28;20045;-73
2023/01/17 06:16:08;;;;;;;0.13;0.13;;;;;;;1.67;100.00;98009.66;6246732;28;20072;-73
2023/01/17 06:19:11;;;;;;;0.40;0.28;;;;;;;1.63;100.00;98005.59;6247211;28;20053;-73
2023/01/17 06:22:12;;;;;;;1.75;0.30;;;;;;;1.59;100.00;98012.75;6246565;28;20046;-73
2023/01/17 06:25:13;;;;;;;1.02;0.65;;;;;;;1.60;100.00;98021.34;6246995;28;20053;-73
2023/01/17 06:28:17;;;;;;;3.30;0.47;;;;;;;1.64;100.00;98025.41;6246802;28;20057;-73
2023/01/17 06:31:18;;;;;;;0.30;0.30;;;;;;;1.65;100.00;98034.81;6246569;28;20425;-73
2023/01/17 06:34:21;;;;;;;2.55;0.35;;;;;;;1.69;100.00;98038.88;6246620;28;20049;-73
2023/01/17 06:37:23;;;;;;;0.25;0.25;;;;;;;1.60;100.00;98052.38;6246573;28;20056;-73
2023/01/17 06:40:25;;;;;;;0.25;0.25;;;;;;;1.62;100.00;98055.69;6246589;28;20417;-73
2023/01/17 06:43:31;;;;;;;2.97;0.35;;;;;;;1.64;100.00;98061.63;6246428;28;20048;-73
2023/01/17 06:46:32;;;;;;;0.30;0.30;;;;;;;1.66;100.00;98065.78;6246611;28;20056;-73
2023/01/17 06:49:35;;;;;;;0.73;0.50;;;;;;;1.67;100.00;98079.56;6246289;28;20056;-73
2023/01/17 06:52:36;;;;;;;0.30;0.30;;;;;;;1.60;100.00;98076.50;6246569;28;20057;-73
2023/01/17 06:55:39;;;;;;;1.30;0.82;;;;;;;1.67;100.00;98082.97;6246242;28;20053;-73
2023/01/17 06:58:40;;;;;;;0.90;0.70;;;;;;;1.77;100.00;98085.84;6246559;28;20053;-73
2023/01/17 07:01:41;;;;;;;0.50;0.43;;;;;;;1.85;100.00;98100.91;6246131;28;20049;-73
2023/01/17 07:04:44;;;;;;;1.42;0.75;;;;;;;1.80;100.00;98101.19;6246475;28;20057;-73
2023/01/17 07:07:46;;;;;;;3.50;1.05;;;;;;;1.84;100.00;98107.84;6248977;28;20050;-73
2023/01/17 07:10:48;;;;;;;2.78;1.10;;;;;;;1.85;100.00;98098.31;6250944;28;20050;-71
2023/01/17 07:13:49;;;;;;;9.50;1.10;;;;;;;1.87;100.00;98112.03;6251170;28;20049;-73
2023/01/17 07:16:50;;;;;;;1.08;0.95;;;;;;;1.80;100.00;98113.31;6251024;28;20196;-73
2023/01/17 07:19:53;;;;;;;1.52;0.85;;;;;;;1.83;100.00;98107.97;6251761;28;20050;-73
2023/01/17 07:22:55;;;;;;;4.50;1.48;;;;;;;1.79;100.00;98117.66;6259212;28;20409;-72
2023/01/17 07:25:57;;;;;;;1.85;1.05;;;;;;;1.81;100.00;98123.56;6261220;28;20049;-73
2023/01/17 07:28:59;;;;;;;0.85;0.75;;;;;;;1.83;100.00;98144.22;6275497;28;20053;-74
2023/01/17 07:32:02;;;;;;;2.88;1.08;;;;;;;1.81;100.00;98138.25;6275484;28;20041;-73
2023/01/17 07:35:05;;;;;;;1.05;0.68;;;;;;;1.79;100.00;98148.72;6274664;28;20045;-71
2023/01/17 07:38:10;;;;;;;2.90;1.02;;;;;;;1.80;100.00;98142.63;6267063;28;20053;-71
2023/01/17 07:41:11;;;;;;;1.92;0.95;;;;;;;1.82;100.00;98150.28;6275087;28;20053;-73
2023/01/17 07:44:13;;;;;;;2.00;1.02;;;;;;;1.78;100.00;98142.72;6274925;28;20053;-71
2023/01/17 07:47:15;;;;;;;1.02;0.57;;;;;;;1.76;100.00;98147.13;6275119;28;20045;-74
2023/01/17 07:50:17;;;;;;;0.95;0.60;;;;;;;1.70;100.00;98146.69;6274716;28;20044;-73
2023/01/17 07:53:19;;;;;;;2.38;0.75;;;;;;;1.77;100.00;98145.38;6275045;28;20052;-73
2023/01/17 07:56:20;;;;;;;5.07;0.93;;;;;;;1.76;100.00;98148.91;6274566;28;20409;-73
2023/01/17 07:59:21;;;;;;;5.18;1.10;;;;;;;1.71;100.00;98148.34;6274885;28;20053;-73
2023/01/17 08:02:23;;;;;;;1.30;1.08;;;;;;;1.74;100.00;98168.88;6274434;28;20052;-73
2023/01/17 08:05:26;;;;;;;3.55;0.73;;;;;;;1.75;100.00;98162.78;6258815;28;20045;-71
2023/01/17 08:08:28;;;;;;;1.35;0.82;;;;;;;1.74;100.00;98171.47;6259174;28;20046;-74
2023/01/17 08:11:29;;;;;;;0.57;0.47;;;;;;;1.72;100.00;98162.94;6262060;28;20045;-73
2023/01/17 08:14:31;;;;;;;3.50;0.82;;;;;;;1.70;100.00;98177.75;6248203;28;20057;-73
2023/01/17 08:17:33;;;;;;;1.30;0.88;;;;;;;1.74;100.00;98174.88;6249661;28;20053;-73
2023/01/17 08:20:35;;;;;;;0.70;0.70;;;;;;;1.69;100.00;98182.09;6248456;28;20136;-73
2023/01/17 08:23:37;;;;;;;0.80;0.77;;;;;;;1.65;100.00;98193.53;6226613;28;20050;-73
2023/01/17 08:26:38;;;;;;;2.13;1.10;;;;;;;1.68;100.00;98189.94;6224896;28;20050;-72
2023/01/17 08:29:41;;;;;;;5.35;0.95;;;;;;;1.63;100.00;98195.38;6224604;28;20046;-72
2023/01/17 08:32:42;;;;;;;1.30;0.80;;;;;;;1.61;100.00;98201.56;6224846;28;20081;-73
2023/01/17 08:35:52;;;;;;;4.75;1.13;;;;;;;1.59;100.00;98208.59;6224477;28;20050;-73
2023/01/17 08:38:54;;;;;;;;;;;;;;;1.60;100.00;98212.84;6233119;28;20073;-71
2023/01/17 08:41:56;;;;;;;0.35;0.28;;;;;;;1.64;100.00;98216.94;6248845;28;19921;-72
2023/01/17 08:44:57;;;;;;;2.83;0.75;;;;;;;1.62;100.00;98226.53;6249097;28;20049;-72
2023/01/17 08:47:59;;;;;;;2.15;0.90;;;;;;;1.60;100.00;98231.81;6248770;28;20076;-73
2023/01/17 08:51:02;;;;;;;3.17;0.80;;;;;;;1.60;100.00;98238.75;6248840;28;20053;-73
2023/01/17 08:54:03;;;;;;;1.05;0.63;;;;;;;1.54;100.00;98242.50;6248884;28;20042;-75
2023/01/17 08:57:05;;;;;;;3.60;0.65;;;;;;;1.65;100.00;98247.06;6250551;28;20049;-73
2023/01/17 09:00:07;;;;;;;1.20;0.70;;;;;;;1.69;100.00;98259.75;6259821;28;20064;-73
2023/01/17 09:03:12;;;;;;;2.03;0.90;;;;;;;1.66;100.00;98262.50;6241548;28;20041;-73
2023/01/17 09:06:16;;;;;;;1.02;0.60;;;;;;;1.71;100.00;98257.06;6253064;28;20060;-73
2023/01/17 09:09:17;;;;;;;0.90;0.68;;;;;;;1.74;100.00;98262.09;6248450;28;20049;-73
2023/01/17 09:12:20;;;;;;;5.63;0.88;;;;;;;1.73;100.00;98266.44;6248144;28;20386;-73
2023/01/17 09:15:22;;;;;;;1.77;0.68;;;;;;;1.73;100.00;98271.59;6248184;28;20049;-74
2023/01/17 09:18:24;;;;;;;1.08;0.70;;;;;;;1.75;100.00;98267.16;6247828;28;20049;-74
2023/01/17 09:21:26;;;;;;;2.38;0.80;;;;;;;1.74;100.00;98267.25;6247645;28;20401;-74
2023/01/17 09:24:29;;;;;;;1.45;0.60;;;;;;;1.84;100.00;98272.75;6248109;28;20056;-73
2023/01/17 09:27:31;;;;;;;7.65;0.82;;;;;;;1.86;100.00;98278.66;6247907;28;20056;-73
2023/01/17 09:30:32;;;;;;;4.38;0.77;;;;;;;1.91;100.00;98292.19;6247985;28;20088;-74
2023/01/17 09:33:33;;;;;;;0.60;0.60;;;;;;;1.91;100.00;98290.44;6247867;28;20064;-74
2023/01/17 09:36:36;;;;;;;1.73;1.10;;;;;;;1.91;100.00;98293.03;6247637;28;20390;-74
2023/01/17 09:39:37;;;;;;;6.97;1.73;;;;;;;1.98;100.00;98307.28;6247519;28;20053;-74
2023/01/17 09:42:40;;;;;;;7.10;0.75;;;;;;;1.93;100.00;98305.88;6247459;28;20052;-74
2023/01/17 09:45:42;;;;;;;4.22;1.33;;;;;;;2.00;100.00;98305.44;6247685;28;20049;-73
2023/01/17 09:48:44;;;;;;;0.22;0.22;;;;;;;2.00;100.00;98317.56;6247509;28;20061;-73
2023/01/17 09:51:47;;;;;;;1.60;0.90;;;;;;;2.01;100.00;98303.69;6247329;28;20056;-73
2023/01/17 09:54:49;;;;;;;2.90;0.90;;;;;;;2.06;100.00;98309.44;6247296;28;20057;-74
2023/01/17 09:57:58;;;;;;;2.50;1.02;;;;;;;2.08;100.00;98317.09;6247719;28;20056;-74
2023/01/17 10:01:05;;;;;;;;;;;;;;;2.09;100.00;98313.59;6247525;28;20056;-74
2023/01/17 10:04:23;;;;;;;3.10;1.05;;;;;;;2.14;100.00;98316.75;6247327;28;19921;-74
2023/01/17 10:07:39;;;;;;;5.65;1.20;;;;;;;2.10;100.00;98328.22;6247076;28;20397;-74
2023/01/17 10:10:43;;;;;;;6.45;0.60;;;;;;;2.13;100.00;98325.44;6246980;28;20138;-74
2023/01/17 10:13:54;;;;;;;0.30;0.30;;;;;;;2.19;100.00;98325.94;6232977;28;20057;-73
2023/01/17 10:17:06;;;;;;;5.20;0.52;;;;;;;2.19;100.00;98333.69;6222647;28;20057;-73
2023/01/17 10:20:32;;;;;;;0.47;0.40;;;;;;;2.26;100.00;98331.56;6222159;28;20050;-74
2023/01/17 10:24:12;;;;;;;1.30;0.70;;;;;;;2.30;100.00;98335.66;6222367;28;20057;-73
2023/01/17 10:27:21;;;;;;;0.60;0.50;;;;;;;2.34;100.00;98341.50;6240435;28;20061;-73
2023/01/17 10:30:23;;;;;;;2.67;1.00;;;;;;;2.33;100.00;98338.09;6245708;28;20437;-73
2023/01/17 10:33:29;;;;;;;0.52;0.43;;;;;;;2.33;100.00;98332.06;6241168;28;20491;-73
2023/01/17 10:36:35;;;;;;;4.57;1.17;;;;;;;2.45;100.00;98323.56;6242661;28;20046;-73
2023/01/17 10:39:39;;;;;;;3.33;1.08;;;;;;;2.54;100.00;98323.88;6236580;28;20054;-74
2023/01/17 10:42:49;;;;;;;2.40;0.60;;;;;;;2.55;100.00;98327.28;6233413;28;20052;-73
2023/01/17 10:45:53;;;;;;;0.75;0.60;;;;;;;2.61;100.00;98326.09;6243360;28;20484;-74
2023/01/17 10:48:56;;;;;;;2.13;0.70;;;;;;;2.58;100.00;98318.47;6250390;28;20060;-73
2023/01/17 10:52:15;;;;;;;4.80;0.65;;;;;;;2.60;100.00;98330.44;6258092;28;20057;-70
2023/01/17 10:55:30;;;;;;;1.55;0.73;;;;;;;2.66;100.00;98334.41;6246335;28;20053;-73
2023/01/17 10:58:32;;;;;;;2.00;0.60;;;;;;;2.69;100.00;98344.63;6246581;28;20164;-73
2023/01/17 11:01:33;;;;;;;1.55;0.73;;;;;;;2.77;100.00;98332.00;6246068;28;20053;-72
2023/01/17 11:04:37;;;;;;;0.50;0.50;;;;;;;2.77;100.00;98335.44;6242959;28;20045;-73
2023/01/17 11:07:42;;;;;;;1.20;0.82;;;;;;;2.84;100.00;98337.66;6248874;28;20057;-73
2023/01/17 11:10:48;;;;;;;0.60;0.45;;;;;;;2.83;100.00;98348.97;6246526;28;20046;-72
2023/01/17 11:13:51;;;;;;;6.53;1.35;;;;;;;2.90;100.00;98342.47;6245910;28;20056;-70
2023/01/17 11:17:01;;;;;;;2.45;0.63;;;;;;;2.83;100.00;98336.84;6244589;28;20049;-71
2023/01/17 11:20:08;;;;;;;1.25;0.52;;;;;;;2.77;100.00;98347.56;6244270;28;20049;-70
2023/01/17 11:23:15;;;;;;;2.08;0.52;;;;;;;2.78;100.00;98337.09;6241959;28;20041;-72
2023/01/17 11:26:26;;;;;;;9.27;0.80;;;;;;;2.78;100.00;98336.28;6243194;28;20045;-72
2023/01/17 11:29:33;;;;;;;1.88;0.60;;;;;;;2.83;100.00;98338.59;6244738;28;20045;-70
2023/01/17 11:32:34;;;;;;;2.95;0.80;;;;;;;2.89;100.00;98338.22;6242605;28;20124;-70
2023/01/17 11:35:42;;;;;;;3.28;0.90;;;;;;;2.99;100.00;98332.34;6245282;28;20485;-70
2023/01/17 11:38:54;;;;;;;3.17;0.65;;;;;;;3.11;100.00;98333.38;6246203;28;20050;-72
2023/01/17 11:41:57;;;;;;;0.52;0.52;;;;;;;3.11;100.00;98335.97;6245550;28;20416;-72
2023/01/17 11:45:24;;;;;;;7.25;0.90;;;;;;;3.12;100.00;98334.22;6245875;28;20339;-72
2023/01/17 11:48:25;;;;;;;1.27;0.90;;;;;;;3.12;100.00;98332.44;6221187;28;20417;-69
2023/01/17 11:51:29;;;;;;;1.95;1.00;;;;;;;3.14;100.00;98337.56;6220939;28;20061;-72
2023/01/17 11:54:38;;;;;;;4.30;0.90;;;;;;;3.07;100.00;98363.03;6222769;28;20085;-69
2023/01/17 11:57:40;;;;;;;0.95;0.70;;;;;;;3.02;100.00;98355.53;6225685;28;20498;-72
2023/01/17 12:00:45;;;;;;;2.20;0.88;;;;;;;3.05;100.00;98352.75;6225196;28;20046;-72
2023/01/17 12:04:02;;;;;;;2.78;1.30;;;;;;;3.10;100.00;98354.25;6225436;28;20053;-69
2023/01/17 12:07:24;;;;;;;0.50;0.50;;;;;;;3.26;100.00;98352.34;6225350;28;20050;-70
2023/01/17 12:10:32;;;;;;;1.02;0.88;;;;;;;3.35;100.00;98353.53;6225161;28;20053;-70
2023/01/17 12:14:00;;;;;;;1.40;0.70;;;;;;;3.39;100.00;98362.81;6225151;28;20046;-70
2023/01/17 12:17:13;;;;;;;3.30;0.60;;;;;;;3.56;100.00;98354.81;6225121;28;20111;-70
2023/01/17 12:20:24;;;;;;;3.65;1.45;;;;;;;3.68;100.00;98364.44;6224654;28;20046;-70
2023/01/17 12:23:51;;;;;;;1.13;0.60;;;;;;;3.87;100.00;98358.88;6224857;28;20050;-70
2023/01/17 12:27:01;;;;;;;0.85;0.70;;;;;;;3.88;100.00;98350.16;6225089;28;20072;-73
2023/01/17 12:30:10;;;;;;;;;;;;;;;3.77;100.00;98352.59;6230640;28;20049;-72
2023/01/17 12:33:20;;;;;;;2.40;1.52;;;;;;;3.64;100.00;98354.31;6240478;28;19955;-72
2023/01/17 12:36:36;;;;;;;0.85;0.60;;;;;;;3.46;100.00;98364.09;6248524;28;20046;-69
2023/01/17 12:39:43;;;;;;;1.85;1.10;;;;;;;3.39;100.00;98353.25;6248110;28;20049;-73
2023/01/17 12:42:51;;;;;;;2.55;1.45;;;;;;;3.36;100.00;98361.25;6220403;28;20045;-73
2023/01/17 12:45:54;;;;;;;8.40;1.23;;;;;;;3.26;100.00;98366.16;6240142;28;20057;-72
2023/01/17 12:49:02;;;;;;;1.77;0.73;;;;;;;3.32;100.00;98359.78;6248491;28;20049;-69
2023/01/17 12:52:12;;;;;;;2.38;0.93;;;;;;;3.30;100.00;98364.22;6247737;28;20053;-70
2023/01/17 12:55:19;;;;;;;10.32;1.95;;;;;;;3.19;100.00;98372.66;6223743;28;20048;-69
2023/01/17 12:58:22;;;;;;;2.25;1.30;;;;;;;3.30;100.00;98365.03;6234904;28;20060;-70
2023/01/17 13:01:29;;;;;;;3.28;1.10;;;;;;;3.34;100.00;98370.06;6246420;28;20053;-69
2023/01/17 13:04:37;;;;;;;3.92;1.33;;;;;;;3.42;100.00;98367.81;6247935;28;20046;-69
2023/01/17 13:07:46;;;;;;;2.17;1.07;;;;;;;3.36;100.00;98371.63;6248574;28;20452;-72
2023/01/17 13:10:53;;;;;;;2.47;1.00;;;;;;;3.35;100.00;98377.75;6248284;28;20049;-72
2023/01/17 13:13:56;;;;;;;4.53;1.38;;;;;;;3.38;100.00;98380.16;6235351;28;20080;-70
2023/01/17 13:17:01;;;;;;;3.72;1.13;;;;;;;3.45;100.00;98383.19;6236666;28;20108;-70
2023/01/17 13:20:12;;;;;;;1.27;1.17;;;;;;;3.41;100.00;98395.56;6221111;28;20042;-70
2023/01/17 13:23:33;;;;;;;0.77;0.77;;;;;;;3.37;100.00;98398.44;6222964;28;20068;-70
2023/01/17 13:26:46;;;;;;;1.48;1.10;;;;;;;3.27;100.00;98392.94;6235953;28;20041;-70
2023/01/17 13:30:00;;;;;;;5.35;1.52;;;;;;;3.21;100.00;98393.34;6226014;28;20080;-70
2023/01/17 13:33:18;;;;;;;1.08;1.02;;;;;;;3.23;100.00;98402.69;6231356;28;20038;-70
2023/01/17 13:36:39;;;;;;;0.88;0.82;;;;;;;3.31;100.00;98403.03;6244738;28;20052;-71
2023/01/17 13:39:59;;;;;;;4.40;1.00;;;;;;;3.31;100.00;98404.81;6199927;28;20054;-70
2023/01/17 13:43:02;;;;;;;5.63;1.15;;;;;;;3.29;100.00;98404.09;6239408;28;20050;-70
2023/01/17 13:46:03;;;;;;;2.33;1.30;;;;;;;3.31;100.00;98416.03;6247581;28;20417;-70
2023/01/17 13:52:34;;;;;;;2.45;1.20;;;;;;;3.38;100.00;98426.06;6317815;27;20351;-72
2023/01/17 13:55:45;;;;;;;3.28;1.48;;;;;;;3.37;100.00;98424.38;6318088;28;20142;-72
2023/01/17 13:58:57;;;;;;;4.93;0.98;;;;;;;3.35;100.00;98427.06;6310393;28;20549;-72
2023/01/17 14:01:58;;;;;;;7.72;1.85;;;;;;;3.37;100.00;98424.38;6292952;28;20127;-69
2023/01/17 14:05:08;;;;;;;1.10;0.90;;;;;;;3.31;100.00;98433.34;6292570;28;20056;-73
2023/01/17 14:08:16;;;;;;;3.55;1.10;;;;;;;3.33;100.00;98428.94;6292799;28;20059;-72
2023/01/17 14:11:18;;;;;;;1.52;0.85;;;;;;;3.29;100.00;98432.63;6292448;28;20048;-73
2023/01/17 14:14:42;;;;;;;10.65;1.33;;;;;;;3.26;100.00;98445.78;6292595;28;20053;-73
2023/01/17 14:17:54;;;;;;;1.05;0.95;;;;;;;3.29;100.00;98433.47;6292464;28;20049;-72
2023/01/17 14:21:10;;;;;;;4.10;1.33;;;;;;;3.15;100.00;98438.66;6292021;28;20412;-72
2023/01/17 14:24:18;;;;;;;2.65;1.27;;;;;;;3.19;100.00;98440.16;6292158;28;20056;-72
2023/01/17 14:27:24;;;;;;;5.72;1.42;;;;;;;3.16;100.00;98436.91;6292484;28;20056;-73
2023/01/17 14:30:27;;;;;;;2.30;1.17;;;;;;;3.18;100.00;98435.03;6291644;28;20045;-72
2023/01/17 14:33:33;;;;;;;7.25;1.75;;;;;;;3.16;100.00;98434.31;6292114;28;20419;-72
2023/01/17 14:36:36;;;;;;;3.78;1.05;;;;;;;3.11;100.00;98433.75;6291826;28;20523;-72
2023/01/17 14:39:45;;;;;;;4.25;1.58;;;;;;;3.03;100.00;98426.41;6291988;28;20511;-72
2023/01/17 14:42:59;;;;;;;1.50;1.17;;;;;;;2.98;100.00;98431.03;6291814;28;20048;-72
2023/01/17 14:46:03;;;;;;;7.13;1.90;;;;;;;2.93;100.00;98435.69;6291640;28;20053;-72
2023/01/17 14:49:07;;;;;;;3.22;1.60;;;;;;;2.93;100.00;98440.88;6291587;28;20056;-72
2023/01/17 14:52:15;;;;;;;3.08;1.83;;;;;;;2.86;100.00;98440.41;6291227;28;20049;-72
2023/01/17 14:55:20;;;;;;;4.45;1.35;;;;;;;2.89;100.00;98447.16;6283655;28;20053;-72
2023/01/17 14:58:23;;;;;;;5.00;1.75;;;;;;;2.88;100.00;98445.50;6289197;28;20045;-73
2023/01/17 15:01:25;;;;;;;3.35;1.58;;;;;;;2.92;100.00;98455.59;6288178;28;20045;-73
2023/01/17 15:04:27;;;;;;;5.38;1.98;;;;;;;2.88;100.00;98461.06;6273202;28;20045;-73
2023/01/17 15:07:31;;;;;;;2.13;1.73;;;;;;;2.77;100.00;98453.88;6274652;28;20422;-72
2023/01/17 15:10:34;;;;;;;5.97;2.70;;;;;;;2.75;100.00;98455.75;6274427;28;20045;-73
2023/01/17 15:13:40;;;;;;;3.35;2.17;;;;;;;2.75;100.00;98460.94;6274566;28;20144;-72
2023/01/17 15:16:42;;;;;;;6.50;2.08;;;;;;;2.71;100.00;98452.50;6274435;28;20053;-72
2023/01/17 15:19:45;;;;;;;5.93;2.10;;;;;;;2.60;100.00;98451.47;6274353;28;20049;-73
2023/01/17 15:22:46;;;;;;;2.58;1.95;;;;;;;2.63;100.00;98452.09;6265044;28;20302;-72
2023/01/17 15:25:52;;;;;;;4.57;2.25;;;;;;;2.66;100.00;98451.09;6249724;28;20045;-72
2023/01/17 15:29:02;;;;;;;6.32;2.65;;;;;;;2.64;100.00;98452.94;6249306;28;20508;-72
2023/01/17 15:32:05;;;;;;;11.75;2.15;;;;;;;2.63;100.00;98452.09;6271194;28;20045;-71
2023/01/17 15:35:17;;;;;;;6.50;2.25;;;;;;;2.56;100.00;98453.38;6273842;28;20053;-71
2023/01/17 15:38:18;;;;;;;5.07;2.55;;;;;;;2.51;100.00;98453.66;6274303;28;20056;-72
2023/01/17 15:41:23;;;;;;;6.55;2.03;;;;;;;2.42;100.00;98456.78;6273652;28;20049;-72
2023/01/17 15:44:29;;;;;;;4.88;2.17;;;;;;;2.43;100.00;98460.19;6273920;28;20060;-72
2023/01/17 15:47:33;;;;;;;5.32;2.33;;;;;;;2.40;100.00;98455.16;6273862;28;20493;-72
2023/01/17 15:50:38;;;;;;;4.43;2.22;;;;;;;2.32;100.00;98458.22;6273495;28;20041;-72
2023/01/17 15:53:42;;;;;;;3.20;2.00;;;;;;;2.25;100.00;98462.06;6273630;28;20144;-72